createdAt,value
2017-05-31T00:00:15.280Z,0
2017-05-31T00:00:55.773Z,0
2017-05-31T00:01:36.287Z,0
2017-05-31T00:02:16.797Z,0
2017-05-31T00:02:57.291Z,0
2017-05-31T00:03:37.783Z,0
2017-05-31T00:04:18.288Z,0
2017-05-31T00:04:58.796Z,0
2017-05-31T00:05:39.297Z,0
2017-05-31T00:06:19.825Z,0
2017-05-31T00:07:00.322Z,0
2017-05-31T00:07:40.855Z,0
2017-05-31T00:08:21.376Z,0
2017-05-31T00:09:01.842Z,0
2017-05-31T00:09:42.313Z,0
2017-05-31T00:10:22.840Z,0
2017-05-31T00:11:03.314Z,0
2017-05-31T00:11:43.788Z,0
2017-05-31T00:12:24.316Z,0
2017-05-31T00:13:04.804Z,0
2017-05-31T00:13:45.305Z,0
2017-05-31T00:14:25.820Z,0
2017-05-31T00:15:06.291Z,0
2017-05-31T00:15:46.786Z,0
2017-05-31T00:16:27.288Z,0
2017-05-31T00:17:07.775Z,0
2017-05-31T00:17:48.280Z,0
2017-05-31T00:18:28.761Z,0
2017-05-31T00:19:09.281Z,0
2017-05-31T00:19:49.773Z,0
2017-05-31T00:20:30.266Z,0
2017-05-31T00:21:10.773Z,0
2017-05-31T00:21:51.258Z,0
2017-05-31T00:22:31.759Z,0
2017-05-31T00:23:12.285Z,0
2017-05-31T00:23:52.753Z,0
2017-05-31T00:24:33.256Z,0
2017-05-31T00:25:13.748Z,0
2017-05-31T00:25:54.264Z,0
2017-05-31T00:26:34.759Z,0
2017-05-31T00:27:15.276Z,0
2017-05-31T00:27:55.750Z,0
2017-05-31T00:28:36.264Z,0
2017-05-31T00:29:16.769Z,0
2017-05-31T00:29:57.269Z,0
2017-05-31T00:30:37.747Z,0
2017-05-31T00:31:18.223Z,0
2017-05-31T00:31:58.704Z,0
2017-05-31T00:32:39.220Z,0
2017-05-31T00:33:19.706Z,0
2017-05-31T00:34:00.189Z,0
2017-05-31T00:34:40.684Z,0
2017-05-31T00:35:21.177Z,0
2017-05-31T00:36:01.659Z,0
2017-05-31T00:36:42.154Z,0
2017-05-31T00:37:22.645Z,0
2017-05-31T00:38:03.140Z,0
2017-05-31T00:38:43.630Z,0
2017-05-31T00:39:24.169Z,0
2017-05-31T00:40:04.658Z,0
2017-05-31T00:40:45.152Z,0
2017-05-31T00:41:25.658Z,0
2017-05-31T00:42:06.142Z,0
2017-05-31T00:42:46.667Z,0
2017-05-31T00:43:27.166Z,0
2017-05-31T00:44:07.648Z,0
2017-05-31T00:44:48.150Z,0
2017-05-31T00:45:28.628Z,0
2017-05-31T00:46:09.156Z,0
2017-05-31T00:46:49.651Z,0
2017-05-31T00:47:30.292Z,0
2017-05-31T00:48:10.633Z,0
2017-05-31T00:48:51.158Z,0
2017-05-31T00:49:31.626Z,0
2017-05-31T00:50:12.118Z,0
2017-05-31T00:52:32.288Z,0
2017-05-31T00:53:12.774Z,0
2017-05-31T00:53:53.268Z,0
2017-05-31T00:54:33.784Z,0
2017-05-31T00:55:14.322Z,0
2017-05-31T00:55:54.826Z,0
2017-05-31T00:56:35.299Z,0
2017-05-31T00:57:15.812Z,0
2017-05-31T00:57:56.366Z,0
2017-05-31T00:58:36.808Z,0
2017-05-31T00:59:17.281Z,0
2017-05-31T00:59:57.770Z,0
2017-05-31T01:00:38.224Z,0
2017-05-31T01:01:18.728Z,0
2017-05-31T01:01:59.193Z,0
2017-05-31T01:02:39.721Z,0
2017-05-31T01:03:20.212Z,0
2017-05-31T01:04:00.722Z,0
2017-05-31T01:04:41.228Z,0
2017-05-31T01:05:21.702Z,0
2017-05-31T01:06:02.218Z,0
2017-05-31T01:06:42.693Z,0
2017-05-31T01:07:23.195Z,0
2017-05-31T01:08:03.675Z,0
2017-05-31T01:08:44.173Z,0
2017-05-31T01:09:24.646Z,0
2017-05-31T01:10:05.128Z,0
2017-05-31T01:10:45.624Z,0
2017-05-31T01:11:26.114Z,0
2017-05-31T01:12:06.613Z,0
2017-05-31T01:12:47.121Z,0
2017-05-31T01:13:27.635Z,0
2017-05-31T01:14:08.105Z,0
2017-05-31T01:14:48.622Z,0
2017-05-31T01:15:29.125Z,0
2017-05-31T01:16:09.619Z,0
2017-05-31T01:16:50.124Z,0
2017-05-31T01:17:30.619Z,0
2017-05-31T01:18:11.129Z,0
2017-05-31T01:18:51.628Z,0
2017-05-31T01:19:32.113Z,0
2017-05-31T01:20:12.660Z,0
2017-05-31T01:20:53.155Z,0
2017-05-31T01:21:33.662Z,0
2017-05-31T01:22:14.156Z,0
2017-05-31T01:22:54.651Z,0
2017-05-31T01:23:35.138Z,0
2017-05-31T01:24:15.633Z,0
2017-05-31T01:24:56.113Z,0
2017-05-31T01:25:36.606Z,0
2017-05-31T01:26:17.112Z,0
2017-05-31T01:26:57.578Z,0
2017-05-31T01:27:38.049Z,0
2017-05-31T01:28:18.589Z,0
2017-05-31T01:28:59.061Z,0
2017-05-31T01:29:39.550Z,0
2017-05-31T01:30:20.038Z,0
2017-05-31T01:31:00.577Z,0
2017-05-31T01:31:41.016Z,0
2017-05-31T01:32:21.514Z,0
2017-05-31T01:33:02.009Z,0
2017-05-31T01:33:42.486Z,0
2017-05-31T01:36:22.053Z,0
2017-05-31T01:37:02.562Z,0
2017-05-31T01:37:43.042Z,0
2017-05-31T01:38:23.531Z,0
2017-05-31T01:39:04.021Z,0
2017-05-31T01:39:44.510Z,0
2017-05-31T01:40:24.986Z,0
2017-05-31T01:41:05.478Z,0
2017-05-31T01:41:45.978Z,0
2017-05-31T01:42:26.464Z,0
2017-05-31T01:43:06.939Z,0
2017-05-31T01:43:47.440Z,0
2017-05-31T01:44:27.918Z,0
2017-05-31T01:45:08.390Z,0
2017-05-31T01:45:48.866Z,0
2017-05-31T01:46:29.396Z,0
2017-05-31T01:47:09.880Z,0
2017-05-31T01:47:50.343Z,0
2017-05-31T01:48:30.826Z,0
2017-05-31T01:49:11.304Z,0
2017-05-31T01:49:51.803Z,0
2017-05-31T01:50:32.318Z,0
2017-05-31T01:51:12.782Z,0
2017-05-31T01:51:53.269Z,0
2017-05-31T01:52:33.756Z,0
2017-05-31T01:53:14.236Z,0
2017-05-31T01:53:54.705Z,0
2017-05-31T01:54:35.192Z,0
2017-05-31T01:55:15.688Z,0
2017-05-31T01:55:56.194Z,0
2017-05-31T01:56:36.687Z,0
2017-05-31T01:57:17.148Z,0
2017-05-31T01:57:57.607Z,0
2017-05-31T01:58:38.122Z,0
2017-05-31T01:59:18.615Z,0
2017-05-31T01:59:59.093Z,0
2017-05-31T02:00:39.563Z,0
2017-05-31T02:01:20.052Z,0
2017-05-31T02:02:00.519Z,0
2017-05-31T02:02:41.017Z,0
2017-05-31T02:03:21.475Z,0
2017-05-31T02:04:01.968Z,0
2017-05-31T02:04:42.445Z,0
2017-05-31T02:05:22.973Z,0
2017-05-31T02:06:03.422Z,0
2017-05-31T02:06:43.936Z,0
2017-05-31T02:07:24.456Z,0
2017-05-31T02:08:04.927Z,0
2017-05-31T02:08:45.420Z,0
2017-05-31T02:09:25.898Z,0
2017-05-31T02:10:06.384Z,0
2017-05-31T02:10:46.857Z,0
2017-05-31T02:11:27.344Z,0
2017-05-31T02:12:07.855Z,0
2017-05-31T02:12:48.337Z,0
2017-05-31T02:13:28.904Z,0
2017-05-31T02:14:09.358Z,0
2017-05-31T02:14:49.843Z,0
2017-05-31T02:15:30.457Z,0
2017-05-31T02:16:10.942Z,0
2017-05-31T02:16:51.433Z,0
2017-05-31T02:17:31.944Z,0
2017-05-31T02:18:12.416Z,0
2017-05-31T02:18:52.915Z,0
2017-05-31T02:19:33.409Z,0
2017-05-31T02:20:13.922Z,0
2017-05-31T02:20:54.439Z,0
2017-05-31T02:21:34.930Z,0
2017-05-31T02:22:15.399Z,0
2017-05-31T02:22:55.894Z,0
2017-05-31T02:23:36.365Z,0
2017-05-31T02:24:16.854Z,0
2017-05-31T02:24:57.351Z,0
2017-05-31T02:25:37.834Z,0
2017-05-31T02:26:18.303Z,0
2017-05-31T02:26:58.820Z,0
2017-05-31T02:27:39.353Z,0
2017-05-31T02:28:19.839Z,0
2017-05-31T02:29:00.358Z,0
2017-05-31T02:31:39.743Z,0
2017-05-31T02:32:20.243Z,0
2017-05-31T02:33:00.752Z,0
2017-05-31T02:33:41.226Z,0
2017-05-31T02:34:21.733Z,0
2017-05-31T02:35:02.213Z,0
2017-05-31T02:35:42.726Z,0
2017-05-31T02:36:23.197Z,0
2017-05-31T02:37:03.677Z,0
2017-05-31T02:37:44.174Z,0
2017-05-31T02:38:24.657Z,0
2017-05-31T02:39:05.174Z,0
2017-05-31T02:39:45.659Z,0
2017-05-31T02:40:26.135Z,0
2017-05-31T02:41:06.647Z,0
2017-05-31T02:41:47.131Z,0
2017-05-31T02:42:27.609Z,0
2017-05-31T02:43:08.098Z,0
2017-05-31T02:43:48.573Z,0
2017-05-31T02:44:29.140Z,0
2017-05-31T02:45:09.605Z,0
2017-05-31T02:45:50.073Z,0
2017-05-31T02:46:30.563Z,0
2017-05-31T02:47:11.057Z,0
2017-05-31T02:47:51.529Z,0
2017-05-31T02:48:32.031Z,5
2017-05-31T02:49:12.543Z,5
2017-05-31T02:49:53.039Z,5
2017-05-31T02:50:33.530Z,5
2017-05-31T02:51:14.039Z,5
2017-05-31T02:51:54.483Z,5
2017-05-31T02:52:34.993Z,5
2017-05-31T02:53:15.545Z,5
2017-05-31T02:53:56.015Z,5
2017-05-31T02:54:36.501Z,5
2017-05-31T02:55:17.046Z,5
2017-05-31T02:55:57.547Z,5
2017-05-31T02:56:38.048Z,5
2017-05-31T02:57:18.563Z,5
2017-05-31T02:57:59.033Z,10
2017-05-31T02:58:39.524Z,10
2017-05-31T02:59:20.023Z,10
2017-05-31T03:00:00.530Z,10
2017-05-31T03:00:41.023Z,10
2017-05-31T03:01:21.508Z,10
2017-05-31T03:02:01.981Z,10
2017-05-31T03:02:42.497Z,10
2017-05-31T03:03:23.005Z,10
2017-05-31T03:04:03.499Z,10
2017-05-31T03:04:44.003Z,10
2017-05-31T03:05:24.488Z,15
2017-05-31T03:06:04.981Z,15
2017-05-31T03:06:45.466Z,15
2017-05-31T03:07:25.930Z,15
2017-05-31T03:08:06.429Z,15
2017-05-31T03:08:46.918Z,15
2017-05-31T03:09:27.392Z,15
2017-05-31T03:10:07.872Z,15
2017-05-31T03:10:48.375Z,15
2017-05-31T03:11:28.892Z,20
2017-05-31T03:12:09.384Z,20
2017-05-31T03:12:49.870Z,20
2017-05-31T03:13:30.496Z,20
2017-05-31T03:14:10.881Z,20
2017-05-31T03:14:51.386Z,20
2017-05-31T03:15:31.865Z,20
2017-05-31T03:16:12.346Z,20
2017-05-31T03:16:52.824Z,25
2017-05-31T03:17:33.309Z,25
2017-05-31T03:18:13.814Z,25
2017-05-31T03:18:54.381Z,25
2017-05-31T03:19:34.884Z,25
2017-05-31T03:20:15.374Z,25
2017-05-31T03:20:55.870Z,25
2017-05-31T03:21:36.430Z,30
2017-05-31T03:22:16.894Z,30
2017-05-31T03:22:57.368Z,30
2017-05-31T03:23:37.879Z,30
2017-05-31T03:24:18.361Z,30
2017-05-31T03:24:58.859Z,30
2017-05-31T03:25:39.406Z,30
2017-05-31T03:26:19.885Z,30
2017-05-31T03:27:00.381Z,35
2017-05-31T03:27:40.876Z,35
2017-05-31T03:28:21.368Z,35
2017-05-31T03:29:01.868Z,35
2017-05-31T03:29:42.353Z,35
2017-05-31T03:30:22.829Z,35
2017-05-31T03:31:03.316Z,40
2017-05-31T03:31:43.824Z,40
2017-05-31T03:32:24.304Z,40
2017-05-31T03:33:04.828Z,40
2017-05-31T03:33:45.328Z,40
2017-05-31T03:34:25.816Z,40
2017-05-31T03:35:06.335Z,40
2017-05-31T03:35:46.795Z,45
2017-05-31T03:36:27.280Z,45
2017-05-31T03:37:07.767Z,45
2017-05-31T03:37:48.227Z,45
2017-05-31T03:38:28.704Z,45
2017-05-31T03:39:09.217Z,45
2017-05-31T03:39:49.719Z,45
2017-05-31T03:40:30.199Z,50
2017-05-31T03:41:10.690Z,50
2017-05-31T03:41:51.177Z,50
2017-05-31T03:42:31.678Z,50
2017-05-31T03:43:12.168Z,50
2017-05-31T03:43:52.646Z,50
2017-05-31T03:44:33.165Z,50
2017-05-31T03:45:13.643Z,55
2017-05-31T03:45:54.137Z,55
2017-05-31T03:46:34.630Z,55
2017-05-31T03:47:15.126Z,55
2017-05-31T03:47:55.682Z,55
2017-05-31T03:48:36.139Z,55
2017-05-31T03:49:16.638Z,55
2017-05-31T03:49:57.126Z,60
2017-05-31T03:50:37.622Z,60
2017-05-31T03:51:18.084Z,60
2017-05-31T03:51:58.594Z,60
2017-05-31T03:52:39.102Z,60
2017-05-31T03:53:19.637Z,60
2017-05-31T03:54:00.120Z,60
2017-05-31T03:54:40.638Z,65
2017-05-31T03:55:21.111Z,65
2017-05-31T03:56:01.587Z,65
2017-05-31T03:56:42.081Z,65
2017-05-31T03:57:22.588Z,65
2017-05-31T03:58:03.087Z,65
2017-05-31T03:58:43.603Z,65
2017-05-31T03:59:24.101Z,70
2017-05-31T04:00:04.658Z,70
2017-05-31T04:00:45.158Z,70
2017-05-31T04:01:25.644Z,70
2017-05-31T04:02:06.177Z,70
2017-05-31T04:02:46.686Z,70
2017-05-31T04:03:27.213Z,70
2017-05-31T04:04:07.709Z,75
2017-05-31T04:04:48.191Z,75
2017-05-31T04:05:28.723Z,75
2017-05-31T04:06:09.230Z,75
2017-05-31T04:06:49.701Z,75
2017-05-31T04:07:30.204Z,75
2017-05-31T04:08:10.712Z,75
2017-05-31T04:08:51.210Z,75
2017-05-31T04:09:31.682Z,75
2017-05-31T04:10:12.178Z,80
2017-05-31T04:10:52.682Z,80
2017-05-31T04:11:33.190Z,80
2017-05-31T04:12:13.716Z,80
2017-05-31T04:12:54.178Z,80
2017-05-31T04:13:34.691Z,80
2017-05-31T04:14:15.186Z,80
2017-05-31T04:14:55.670Z,80
2017-05-31T04:15:36.149Z,85
2017-05-31T04:16:16.624Z,85
2017-05-31T04:16:57.110Z,85
2017-05-31T04:17:37.651Z,85
2017-05-31T04:18:18.194Z,85
2017-05-31T04:18:58.722Z,85
2017-05-31T04:19:39.259Z,85
2017-05-31T04:20:19.766Z,85
2017-05-31T04:21:00.356Z,90
2017-05-31T04:21:40.895Z,90
2017-05-31T04:22:21.365Z,90
2017-05-31T04:23:01.859Z,90
2017-05-31T04:23:42.331Z,90
2017-05-31T04:24:22.824Z,90
2017-05-31T04:25:03.397Z,90
2017-05-31T04:25:43.988Z,85
2017-05-31T04:26:24.517Z,90
2017-05-31T04:27:05.077Z,90
2017-05-31T04:27:45.566Z,85
2017-05-31T04:28:26.043Z,85
2017-05-31T04:29:06.528Z,85
2017-05-31T04:29:47.002Z,85
2017-05-31T04:30:27.509Z,90
2017-05-31T04:31:08.007Z,90
2017-05-31T04:31:48.502Z,90
2017-05-31T04:32:28.992Z,95
2017-05-31T04:33:09.578Z,95
2017-05-31T04:33:50.142Z,100
2017-05-31T04:34:30.624Z,100
2017-05-31T04:35:11.087Z,100
2017-05-31T04:35:51.538Z,100
2017-05-31T04:36:32.013Z,100
2017-05-31T04:37:12.505Z,100
2017-05-31T04:37:53.009Z,100
2017-05-31T04:38:33.510Z,100
2017-05-31T04:39:14.045Z,100
2017-05-31T04:39:54.512Z,100
2017-05-31T04:40:35.083Z,105
2017-05-31T04:41:15.571Z,105
2017-05-31T04:41:56.057Z,105
2017-05-31T04:42:36.550Z,105
2017-05-31T04:43:17.032Z,105
2017-05-31T04:43:57.509Z,105
2017-05-31T04:46:10.747Z,105
2017-05-31T04:46:51.204Z,105
2017-05-31T04:47:31.699Z,100
2017-05-31T04:48:12.185Z,105
2017-05-31T04:48:52.669Z,105
2017-05-31T04:49:33.142Z,110
2017-05-31T04:50:13.626Z,110
2017-05-31T04:50:54.197Z,110
2017-05-31T04:51:34.719Z,110
2017-05-31T04:52:15.215Z,110
2017-05-31T04:52:55.698Z,110
2017-05-31T04:53:36.169Z,110
2017-05-31T04:54:16.642Z,110
2017-05-31T04:54:57.121Z,110
2017-05-31T04:55:37.605Z,110
2017-05-31T04:56:18.062Z,115
2017-05-31T04:56:58.625Z,115
2017-05-31T04:57:39.102Z,115
2017-05-31T04:58:19.697Z,115
2017-05-31T04:59:00.198Z,115
2017-05-31T04:59:40.719Z,115
2017-05-31T05:00:21.304Z,120
2017-05-31T05:01:01.776Z,120
2017-05-31T05:01:42.268Z,120
2017-05-31T05:02:22.839Z,120
2017-05-31T05:03:03.425Z,115
2017-05-31T05:03:43.964Z,115
2017-05-31T05:04:24.423Z,110
2017-05-31T05:05:04.978Z,125
2017-05-31T05:05:45.448Z,110
2017-05-31T05:06:25.939Z,120
2017-05-31T05:07:06.454Z,115
2017-05-31T05:07:46.916Z,110
2017-05-31T05:08:27.429Z,120
2017-05-31T05:09:07.898Z,120
2017-05-31T05:09:48.388Z,120
2017-05-31T05:10:28.877Z,120
2017-05-31T05:11:09.362Z,120
2017-05-31T05:11:49.909Z,120
2017-05-31T05:12:30.393Z,120
2017-05-31T05:13:10.902Z,120
2017-05-31T05:13:51.395Z,120
2017-05-31T05:14:31.904Z,110
2017-05-31T05:15:12.417Z,125
2017-05-31T05:15:52.883Z,115
2017-05-31T05:16:33.351Z,130
2017-05-31T05:17:13.841Z,125
2017-05-31T05:17:54.360Z,130
2017-05-31T05:18:34.857Z,135
2017-05-31T05:19:15.316Z,120
2017-05-31T05:19:55.798Z,125
2017-05-31T05:20:36.304Z,115
2017-05-31T05:21:16.870Z,120
2017-05-31T05:21:57.409Z,115
2017-05-31T05:22:37.938Z,130
2017-05-31T05:23:18.479Z,125
2017-05-31T05:23:58.943Z,130
2017-05-31T05:24:39.421Z,130
2017-05-31T05:25:20.051Z,130
2017-05-31T05:26:00.529Z,130
2017-05-31T05:26:41.010Z,120
2017-05-31T05:27:21.490Z,125
2017-05-31T05:28:01.975Z,125
2017-05-31T05:28:42.460Z,120
2017-05-31T05:29:22.932Z,130
2017-05-31T05:30:03.403Z,130
2017-05-31T05:30:43.905Z,135
2017-05-31T05:31:24.414Z,135
2017-05-31T05:32:04.887Z,130
2017-05-31T05:32:45.371Z,135
2017-05-31T05:33:25.892Z,120
2017-05-31T05:34:06.394Z,120
2017-05-31T05:34:46.899Z,125
2017-05-31T05:35:27.392Z,130
2017-05-31T05:36:07.905Z,130
2017-05-31T05:36:48.391Z,135
2017-05-31T05:37:28.908Z,135
2017-05-31T05:38:09.414Z,135
2017-05-31T05:38:49.876Z,135
2017-05-31T05:39:30.375Z,135
2017-05-31T05:40:10.889Z,135
2017-05-31T05:40:51.392Z,145
2017-05-31T05:41:31.920Z,140
2017-05-31T05:42:12.411Z,155
2017-05-31T05:42:52.909Z,150
2017-05-31T05:43:33.400Z,165
2017-05-31T05:44:14.000Z,195
2017-05-31T05:44:54.617Z,185
2017-05-31T05:45:35.129Z,210
2017-05-31T05:46:15.897Z,150
2017-05-31T05:46:56.408Z,170
2017-05-31T05:47:36.914Z,155
2017-05-31T05:48:17.433Z,140
2017-05-31T05:48:57.983Z,130
2017-05-31T05:49:38.463Z,145
2017-05-31T05:50:18.953Z,150
2017-05-31T05:50:59.553Z,145
2017-05-31T05:51:40.042Z,145
2017-05-31T05:52:20.547Z,160
2017-05-31T05:53:01.099Z,155
2017-05-31T05:53:41.655Z,150
2017-05-31T05:54:22.131Z,160
2017-05-31T05:55:02.569Z,145
2017-05-31T05:55:43.096Z,150
2017-05-31T05:56:23.553Z,140
2017-05-31T05:57:04.044Z,165
2017-05-31T05:57:44.558Z,195
2017-05-31T05:58:25.053Z,210
2017-05-31T05:59:05.553Z,205
2017-05-31T05:59:46.061Z,205
2017-05-31T06:00:26.522Z,265
2017-05-31T06:01:07.780Z,220
2017-05-31T06:01:48.332Z,195
2017-05-31T06:02:28.817Z,225
2017-05-31T06:03:09.336Z,225
2017-05-31T06:03:49.803Z,210
2017-05-31T06:04:30.299Z,240
2017-05-31T06:05:10.759Z,220
2017-05-31T06:05:51.267Z,230
2017-05-31T06:06:31.827Z,230
2017-05-31T06:07:12.286Z,200
2017-05-31T06:07:52.774Z,260
2017-05-31T06:08:33.198Z,250
2017-05-31T06:09:13.676Z,200
2017-05-31T06:09:54.176Z,215
2017-05-31T06:10:34.634Z,205
2017-05-31T06:11:15.101Z,230
2017-05-31T06:11:55.739Z,220
2017-05-31T06:12:36.129Z,200
2017-05-31T06:13:16.621Z,215
2017-05-31T06:13:57.096Z,190
2017-05-31T06:14:37.559Z,210
2017-05-31T06:15:18.059Z,205
2017-05-31T06:15:58.564Z,190
2017-05-31T06:16:39.041Z,220
2017-05-31T06:17:19.522Z,220
2017-05-31T06:17:59.964Z,255
2017-05-31T06:18:40.587Z,190
2017-05-31T06:19:21.248Z,225
2017-05-31T06:20:01.907Z,225
2017-05-31T06:20:42.378Z,265
2017-05-31T06:21:22.977Z,230
2017-05-31T06:22:03.593Z,235
2017-05-31T06:22:44.077Z,285
2017-05-31T06:23:24.646Z,265
2017-05-31T06:24:05.124Z,240
2017-05-31T06:24:45.616Z,325
2017-05-31T06:25:26.213Z,265
2017-05-31T06:26:06.763Z,220
2017-05-31T06:26:47.326Z,275
2017-05-31T06:27:27.851Z,265
2017-05-31T06:28:08.339Z,285
2017-05-31T06:28:48.836Z,235
2017-05-31T06:29:29.364Z,240
2017-05-31T06:30:12.380Z,245
2017-05-31T06:30:52.938Z,235
2017-05-31T06:31:33.536Z,300
2017-05-31T06:32:14.099Z,265
2017-05-31T06:32:54.607Z,285
2017-05-31T06:33:35.095Z,280
2017-05-31T06:34:15.693Z,275
2017-05-31T06:34:56.215Z,275
2017-05-31T06:35:36.808Z,280
2017-05-31T06:36:17.364Z,300
2017-05-31T06:37:08.325Z,285
2017-05-31T06:38:02.577Z,305
2017-05-31T06:38:58.244Z,255
2017-05-31T06:39:45.828Z,210
2017-05-31T06:40:26.354Z,205
2017-05-31T06:41:06.889Z,200
2017-05-31T06:41:47.495Z,200
2017-05-31T06:42:27.987Z,220
2017-05-31T06:43:08.620Z,270
2017-05-31T06:43:49.135Z,285
2017-05-31T06:44:29.613Z,325
2017-05-31T06:45:10.175Z,335
2017-05-31T06:45:50.652Z,310
2017-05-31T06:46:31.135Z,280
2017-05-31T06:47:11.610Z,250
2017-05-31T06:47:52.100Z,235
2017-05-31T06:48:33.442Z,310
2017-05-31T06:49:14.022Z,355
2017-05-31T06:49:54.552Z,270
2017-05-31T06:50:35.091Z,250
2017-05-31T06:51:15.574Z,250
2017-05-31T06:51:56.157Z,225
2017-05-31T06:52:36.886Z,255
2017-05-31T06:53:17.384Z,295
2017-05-31T06:53:57.860Z,215
2017-05-31T06:54:38.360Z,275
2017-05-31T06:55:18.869Z,280
2017-05-31T06:55:59.420Z,215
2017-05-31T06:56:39.935Z,200
2017-05-31T06:57:21.110Z,190
2017-05-31T06:58:02.535Z,215
2017-05-31T06:58:43.040Z,255
2017-05-31T06:59:23.552Z,235
2017-05-31T07:00:04.060Z,265
2017-05-31T07:00:44.567Z,230
2017-05-31T07:01:25.097Z,200
2017-05-31T07:02:05.595Z,205
2017-05-31T07:02:46.067Z,170
2017-05-31T07:03:27.069Z,160
2017-05-31T07:04:07.925Z,165
2017-05-31T07:04:48.445Z,175
2017-05-31T07:05:29.022Z,175
2017-05-31T07:06:09.546Z,180
2017-05-31T07:06:51.001Z,190
2017-05-31T07:07:31.482Z,205
2017-05-31T07:08:12.014Z,265
2017-05-31T07:08:52.967Z,265
2017-05-31T07:09:33.444Z,300
2017-05-31T07:10:14.002Z,335
2017-05-31T07:10:54.521Z,355
2017-05-31T07:11:35.460Z,310
2017-05-31T07:12:15.922Z,295
2017-05-31T07:12:56.437Z,390
2017-05-31T07:13:36.937Z,345
2017-05-31T07:14:17.570Z,230
2017-05-31T07:14:58.089Z,215
2017-05-31T07:15:38.564Z,190
2017-05-31T07:16:20.936Z,170
2017-05-31T07:17:01.397Z,210
2017-05-31T07:17:41.899Z,205
2017-05-31T07:18:22.397Z,280
2017-05-31T07:19:02.872Z,270
2017-05-31T07:19:43.373Z,310
2017-05-31T07:20:23.910Z,250
2017-05-31T07:21:04.402Z,265
2017-05-31T07:21:44.934Z,285
2017-05-31T07:22:25.391Z,275
2017-05-31T07:23:05.924Z,300
2017-05-31T07:23:46.383Z,275
2017-05-31T07:24:26.868Z,245
2017-05-31T07:25:07.364Z,275
2017-05-31T07:25:47.866Z,265
2017-05-31T07:26:28.551Z,250
2017-05-31T07:27:09.056Z,255
2017-05-31T07:27:49.595Z,285
2017-05-31T07:28:30.089Z,410
2017-05-31T07:29:10.572Z,340
2017-05-31T07:29:51.258Z,365
2017-05-31T07:30:31.770Z,395
2017-05-31T07:31:12.251Z,365
2017-05-31T07:31:52.740Z,330
2017-05-31T07:32:33.256Z,305
2017-05-31T07:33:13.834Z,300
2017-05-31T07:33:54.332Z,250
2017-05-31T07:34:34.826Z,265
2017-05-31T07:35:15.326Z,330
2017-05-31T07:35:55.794Z,295
2017-05-31T07:36:36.300Z,310
2017-05-31T07:37:16.809Z,340
2017-05-31T07:37:57.754Z,380
2017-05-31T07:38:38.153Z,305
2017-05-31T07:39:18.656Z,240
2017-05-31T07:39:59.164Z,280
2017-05-31T07:40:39.915Z,325
2017-05-31T07:41:20.808Z,290
2017-05-31T07:42:01.762Z,305
2017-05-31T07:42:42.294Z,310
2017-05-31T07:43:22.862Z,315
2017-05-31T07:44:03.391Z,270
2017-05-31T07:44:43.888Z,315
2017-05-31T07:45:24.564Z,315
2017-05-31T07:46:05.039Z,365
2017-05-31T07:46:45.513Z,325
2017-05-31T07:47:25.999Z,310
2017-05-31T07:48:06.897Z,350
2017-05-31T07:48:47.422Z,355
2017-05-31T07:49:27.902Z,325
2017-05-31T07:50:08.480Z,320
2017-05-31T07:50:48.965Z,330
2017-05-31T07:51:29.472Z,275
2017-05-31T07:54:03.075Z,335
2017-05-31T07:54:45.844Z,340
2017-05-31T07:55:26.633Z,325
2017-05-31T07:56:07.498Z,355
2017-05-31T07:56:48.723Z,410
2017-05-31T07:57:29.219Z,425
2017-05-31T07:58:09.748Z,405
2017-05-31T07:58:50.234Z,400
2017-05-31T07:59:31.228Z,440
2017-05-31T08:00:11.735Z,405
2017-05-31T08:00:52.284Z,360
2017-05-31T08:01:32.774Z,340
2017-05-31T08:02:13.280Z,340
2017-05-31T08:02:53.798Z,305
2017-05-31T08:03:34.300Z,310
2017-05-31T08:04:14.759Z,385
2017-05-31T08:04:55.298Z,300
2017-05-31T08:05:35.774Z,265
2017-05-31T08:06:16.552Z,275
2017-05-31T08:06:57.067Z,325
2017-05-31T08:07:37.645Z,360
2017-05-31T08:08:18.155Z,335
2017-05-31T08:09:02.525Z,310
2017-05-31T08:09:44.053Z,375
2017-05-31T08:10:24.596Z,390
2017-05-31T08:11:05.114Z,320
2017-05-31T08:11:45.620Z,325
2017-05-31T08:12:26.108Z,350
2017-05-31T08:13:06.641Z,320
2017-05-31T08:13:48.668Z,300
2017-05-31T08:14:29.201Z,290
2017-05-31T08:15:10.720Z,365
2017-05-31T08:17:39.426Z,390
2017-05-31T08:18:19.984Z,380
2017-05-31T08:19:00.548Z,430
2017-05-31T08:19:41.167Z,455
2017-05-31T08:20:21.797Z,440
2017-05-31T08:21:02.308Z,450
2017-05-31T08:21:42.822Z,470
2017-05-31T08:22:23.354Z,450
2017-05-31T08:23:03.863Z,465
2017-05-31T08:23:44.415Z,350
2017-05-31T08:24:24.921Z,375
2017-05-31T08:25:05.395Z,360
2017-05-31T08:25:45.837Z,300
2017-05-31T08:26:26.437Z,295
2017-05-31T08:27:06.978Z,320
2017-05-31T08:27:47.471Z,335
2017-05-31T08:28:27.999Z,370
2017-05-31T08:29:08.595Z,425
2017-05-31T08:29:49.096Z,390
2017-05-31T08:30:29.588Z,370
2017-05-31T08:31:10.133Z,350
2017-05-31T08:31:50.617Z,370
2017-05-31T08:32:31.101Z,440
2017-05-31T08:33:17.066Z,355
2017-05-31T08:33:57.782Z,280
2017-05-31T08:34:46.321Z,260
2017-05-31T08:35:26.792Z,260
2017-05-31T08:36:07.266Z,350
2017-05-31T08:36:47.800Z,415
2017-05-31T08:37:28.362Z,415
2017-05-31T08:38:08.825Z,425
2017-05-31T08:38:49.335Z,495
2017-05-31T08:39:29.866Z,550
2017-05-31T08:40:10.388Z,465
2017-05-31T08:40:50.927Z,450
2017-05-31T08:41:31.438Z,440
2017-05-31T08:42:11.938Z,455
2017-05-31T08:42:52.470Z,370
2017-05-31T08:45:11.841Z,310
2017-05-31T08:45:52.266Z,395
2017-05-31T08:46:32.836Z,465
2017-05-31T08:47:13.377Z,495
2017-05-31T08:47:54.852Z,535
2017-05-31T08:48:35.357Z,455
2017-05-31T08:49:15.853Z,450
2017-05-31T08:49:56.429Z,405
2017-05-31T08:50:37.895Z,480
2017-05-31T08:51:18.773Z,450
2017-05-31T08:51:59.601Z,415
2017-05-31T08:52:40.370Z,375
2017-05-31T08:55:08.900Z,285
2017-05-31T08:55:49.348Z,275
2017-05-31T08:56:29.857Z,310
2017-05-31T08:57:10.363Z,295
2017-05-31T08:57:53.196Z,305
2017-05-31T08:58:33.710Z,335
2017-05-31T08:59:17.890Z,335
2017-05-31T08:59:58.385Z,350
2017-05-31T09:00:38.880Z,390
2017-05-31T09:01:19.404Z,420
2017-05-31T09:01:59.911Z,340
2017-05-31T09:02:40.675Z,315
2017-05-31T09:03:21.159Z,370
2017-05-31T09:04:03.330Z,390
2017-05-31T09:04:45.516Z,500
2017-05-31T09:05:26.896Z,540
2017-05-31T09:06:09.282Z,460
2017-05-31T09:06:55.192Z,390
2017-05-31T09:07:38.337Z,325
2017-05-31T09:08:20.318Z,340
2017-05-31T09:09:04.342Z,380
2017-05-31T09:09:45.884Z,485
2017-05-31T09:10:26.364Z,515
2017-05-31T09:11:06.893Z,535
2017-05-31T09:11:47.418Z,560
2017-05-31T09:12:27.939Z,545
2017-05-31T09:13:08.441Z,520
2017-05-31T09:13:49.200Z,535
2017-05-31T09:14:29.785Z,530
2017-05-31T09:15:10.243Z,485
2017-05-31T09:15:50.744Z,505
2017-05-31T09:16:31.277Z,525
2017-05-31T09:17:18.012Z,545
2017-05-31T09:18:03.905Z,490
2017-05-31T09:18:49.695Z,435
2017-05-31T09:19:31.935Z,405
2017-05-31T09:20:14.455Z,440
2017-05-31T09:21:08.289Z,510
2017-05-31T09:21:49.660Z,540
2017-05-31T09:22:31.057Z,495
2017-05-31T09:25:14.969Z,525
2017-05-31T09:27:34.980Z,555
2017-05-31T09:28:19.651Z,510
2017-05-31T09:29:00.879Z,490
2017-05-31T09:29:42.063Z,555
2017-05-31T09:30:23.462Z,585
2017-05-31T09:31:05.726Z,560
2017-05-31T09:31:46.275Z,525
2017-05-31T09:32:27.806Z,515
2017-05-31T09:33:08.338Z,515
2017-05-31T09:33:53.565Z,525
2017-05-31T09:34:34.747Z,515
2017-05-31T09:35:16.893Z,565
2017-05-31T09:35:58.183Z,565
2017-05-31T09:36:40.232Z,555
2017-05-31T09:39:10.511Z,415
2017-05-31T09:41:25.294Z,395
2017-05-31T09:42:08.222Z,410
2017-05-31T09:42:51.421Z,490
2017-05-31T09:43:32.855Z,475
2017-05-31T09:44:14.388Z,540
2017-05-31T09:44:55.902Z,545
2017-05-31T09:45:40.794Z,615
2017-05-31T09:46:22.046Z,535
2017-05-31T09:47:03.636Z,490
2017-05-31T09:47:45.047Z,415
2017-05-31T09:48:25.480Z,345
2017-05-31T09:49:07.842Z,400
2017-05-31T09:49:50.319Z,455
2017-05-31T09:50:34.684Z,515
2017-05-31T09:51:17.006Z,485
2017-05-31T09:51:58.294Z,530
2017-05-31T09:52:40.486Z,510
2017-05-31T09:53:21.004Z,435
2017-05-31T09:54:02.457Z,370
2017-05-31T09:54:43.730Z,285
2017-05-31T09:55:27.798Z,315
2017-05-31T09:56:11.112Z,435
2017-05-31T09:56:54.422Z,495
2017-05-31T09:57:34.943Z,435